Time;durP1;ratioP1;P1;durP2;ratioP2;P2;SDS_P1;SDS_P2;PMS_P1;PMS_P2;Temp;Humidity;BMP_temperature;BMP_pressure;BME280_temperature;BME280_humidity;BME280_pressure;Samples;Min_cycle;Max_cycle;Signal;HPM_P1;HPM_P2
2022/03/26 00:00:34;;;;;;;16.50;15.00;;;;;;;4.84;49.44;93575.38;5048121;28;20182;-77
2022/03/26 00:02:59;;;;;;;16.40;14.63;;;;;;;5.11;49.15;93600.88;5048759;28;20228;-77
2022/03/26 00:05:25;;;;;;;16.53;15.13;;;;;;;5.19;49.08;93605.75;5049098;28;20248;-77
2022/03/26 00:07:50;;;;;;;16.23;14.73;;;;;;;4.92;49.26;93577.66;5049041;28;20243;-76
2022/03/26 00:10:16;;;;;;;16.13;14.53;;;;;;;5.00;49.63;93599.84;5048667;28;20229;-77
2022/03/26 00:12:42;;;;;;;16.00;14.27;;;;;;;5.04;50.26;93595.03;5048504;28;20186;-77
2022/03/26 00:15:08;;;;;;;16.00;14.40;;;;;;;4.90;49.70;93615.91;5048785;28;20218;-77
2022/03/26 00:17:34;;;;;;;16.53;15.03;;;;;;;4.83;50.04;93591.13;5048698;28;20352;-76
2022/03/26 00:20:03;;;;;;;15.97;14.30;;;;;;;4.91;50.31;93611.53;5047556;28;20259;-77
2022/03/26 00:22:29;;;;;;;17.17;15.47;;;;;;;4.69;51.01;93595.69;5047710;28;20188;-77
2022/03/26 00:24:54;;;;;;;16.57;14.87;;;;;;;4.54;51.90;93600.47;5048886;28;20286;-77
2022/03/26 00:27:20;;;;;;;18.70;14.53;;;;;;;4.72;52.32;93613.34;5048645;28;20281;-76
2022/03/26 00:29:45;;;;;;;17.73;15.70;;;;;;;4.28;52.09;93587.81;5045873;28;20214;-77
2022/03/26 00:32:11;;;;;;;16.80;15.10;;;;;;;4.30;51.75;93616.03;5049069;28;20265;-75
2022/03/26 00:34:37;;;;;;;20.43;15.23;;;;;;;4.34;52.49;93612.81;5047389;28;20214;-77
2022/03/26 00:37:02;;;;;;;15.53;14.23;;;;;;;4.13;52.14;93586.59;5047842;28;20221;-77
2022/03/26 00:39:28;;;;;;;15.93;14.47;;;;;;;4.18;52.50;93597.09;5048885;28;20233;-77
2022/03/26 00:41:53;;;;;;;19.77;15.83;;;;;;;4.30;51.76;93616.84;5048102;28;20170;-77
2022/03/26 00:44:20;;;;;;;17.13;15.53;;;;;;;4.17;52.07;93604.06;5048170;28;20256;-77
2022/03/26 00:46:46;;;;;;;18.63;16.80;;;;;;;4.38;51.92;93619.13;5048722;28;20198;-77
2022/03/26 00:49:13;;;;;;;21.87;17.47;;;;;;;4.54;51.15;93615.19;5045852;28;20230;-77
2022/03/26 00:51:39;;;;;;;18.67;15.07;;;;;;;4.28;52.21;93611.09;5048873;28;20201;-77
2022/03/26 00:54:04;;;;;;;16.47;14.77;;;;;;;4.39;53.17;93623.28;5048561;28;20230;-77
2022/03/26 00:56:30;;;;;;;15.80;14.30;;;;;;;4.16;52.85;93619.78;5047847;28;20213;-76
2022/03/26 00:58:55;;;;;;;16.07;14.43;;;;;;;3.85;53.24;93594.06;5046933;28;20234;-77
2022/03/26 01:01:21;;;;;;;19.93;15.30;;;;;;;3.98;53.63;93610.22;5049557;28;20664;-78
2022/03/26 01:03:47;;;;;;;16.17;14.60;;;;;;;4.01;53.39;93620.13;5047003;28;20262;-76
2022/03/26 01:06:13;;;;;;;22.47;14.80;;;;;;;4.04;53.24;93627.47;5048649;28;20202;-77
2022/03/26 01:08:39;;;;;;;17.47;14.77;;;;;;;3.92;53.02;93611.06;5048628;28;20226;-75
2022/03/26 01:11:04;;;;;;;16.90;15.13;;;;;;;3.97;53.46;93631.13;5047480;28;20198;-76
2022/03/26 01:13:31;;;;;;;16.27;14.57;;;;;;;3.82;52.88;93609.97;5048207;28;20226;-76
2022/03/26 01:15:57;;;;;;;16.93;14.07;;;;;;;3.89;52.82;93628.78;5047864;28;20193;-76
2022/03/26 01:18:24;;;;;;;16.67;14.97;;;;;;;3.87;53.28;93630.78;5048467;28;21682;-77
2022/03/26 01:20:49;;;;;;;15.57;13.93;;;;;;;4.04;52.91;93632.63;5051974;28;20182;-76
2022/03/26 01:23:19;;;;;;;16.43;14.87;;;;;;;4.05;53.46;93641.94;5051303;28;20217;-77
2022/03/26 01:25:44;;;;;;;16.23;14.57;;;;;;;3.76;53.42;93626.31;5050831;28;20174;-76
2022/03/26 01:28:10;;;;;;;15.67;14.27;;;;;;;3.58;54.01;93616.72;5045999;28;20197;-76
2022/03/26 01:30:35;;;;;;;16.43;14.77;;;;;;;3.83;53.46;93643.34;5052127;28;20178;-76
2022/03/26 01:33:01;;;;;;;17.50;15.60;;;;;;;3.92;53.53;93649.81;5047869;28;20190;-77
2022/03/26 01:35:26;;;;;;;21.00;15.23;;;;;;;3.79;54.54;93642.19;5050744;28;20230;-76
2022/03/26 01:37:51;;;;;;;15.90;14.43;;;;;;;3.77;53.41;93646.78;5044193;28;20237;-76
2022/03/26 01:40:17;;;;;;;15.60;14.20;;;;;;;3.76;54.20;93649.56;5052381;28;20222;-76
2022/03/26 01:42:42;;;;;;;16.07;14.60;;;;;;;3.75;54.31;93651.34;5052114;28;20193;-77
2022/03/26 01:45:13;;;;;;;18.70;15.40;;;;;;;3.88;54.12;93646.06;5049966;28;20214;-76
2022/03/26 01:47:40;;;;;;;17.20;15.50;;;;;;;3.83;54.55;93645.91;5051880;28;20194;-77
2022/03/26 01:50:06;;;;;;;18.23;14.97;;;;;;;3.63;54.54;93641.94;5051432;28;20305;-76
2022/03/26 01:52:31;;;;;;;15.80;14.10;;;;;;;3.43;54.89;93634.34;5052069;28;20178;-76
2022/03/26 01:54:58;;;;;;;16.43;14.70;;;;;;;3.47;55.07;93643.22;5050587;28;20229;-77
2022/03/26 01:57:24;;;;;;;20.87;15.50;;;;;;;3.43;55.24;93639.50;5051302;28;21055;-77
2022/03/26 01:59:50;;;;;;;19.13;14.70;;;;;;;3.33;54.79;93620.31;5050507;28;20228;-77
2022/03/26 02:02:15;;;;;;;17.87;14.83;;;;;;;3.48;54.91;93654.34;5050467;28;20182;-77
2022/03/26 02:04:41;;;;;;;16.27;14.80;;;;;;;3.21;55.74;93625.34;5051355;28;20241;-75
2022/03/26 02:07:07;;;;;;;15.53;14.03;;;;;;;3.47;55.56;93648.38;5049760;28;20213;-77
2022/03/26 02:09:35;;;;;;;18.57;14.37;;;;;;;3.38;55.91;93636.75;5052092;28;20234;-77
2022/03/26 02:12:21;;;;;;;16.87;13.40;;;;;;;3.45;56.27;93650.41;5051708;28;20189;-76
2022/03/26 02:14:46;;;;;;;15.90;14.53;;;;;;;3.25;55.64;93631.69;5050061;28;20229;-76
2022/03/26 02:17:12;;;;;;;16.10;14.63;;;;;;;3.18;56.62;93654.16;5047386;28;20244;-77
2022/03/26 02:19:37;;;;;;;16.30;14.67;;;;;;;2.74;56.88;93605.22;5049737;28;20234;-77
2022/03/26 02:22:03;;;;;;;17.03;14.57;;;;;;;3.17;56.13;93647.41;5051293;28;20198;-77
2022/03/26 02:24:29;;;;;;;16.93;15.27;;;;;;;3.24;55.68;93661.84;5050426;28;20253;-77
2022/03/26 02:26:55;;;;;;;15.93;14.50;;;;;;;3.22;56.90;93661.28;5049071;28;20252;-77
2022/03/26 02:29:20;;;;;;;16.97;14.77;;;;;;;3.26;55.79;93656.50;5050134;28;20286;-76
2022/03/26 02:31:46;;;;;;;19.53;15.70;;;;;;;3.15;56.93;93646.84;5048980;28;20198;-77
2022/03/26 02:34:11;;;;;;;19.07;16.67;;;;;;;3.12;56.03;93660.16;5050169;28;20233;-77
2022/03/26 02:36:37;;;;;;;21.17;17.87;;;;;;;2.86;55.68;93613.88;5049958;28;20247;-77
2022/03/26 02:39:04;;;;;;;18.33;15.77;;;;;;;2.95;55.49;93633.25;5050778;28;20217;-76
2022/03/26 02:41:31;;;;;;;17.30;14.77;;;;;;;3.18;55.22;93664.47;5050117;28;20193;-76
2022/03/26 02:43:57;;;;;;;16.20;14.70;;;;;;;3.24;55.59;93640.41;5050524;28;20245;-76
2022/03/26 02:46:22;;;;;;;19.50;14.40;;;;;;;3.07;55.25;93637.56;5050495;28;20218;-77
2022/03/26 02:48:48;;;;;;;16.53;14.93;;;;;;;3.25;55.36;93649.75;5047492;28;20222;-75
2022/03/26 02:51:13;;;;;;;22.83;16.10;;;;;;;3.01;55.41;93653.06;5049293;28;20190;-76
2022/03/26 02:53:39;;;;;;;17.10;15.37;;;;;;;3.25;54.51;93654.91;5049666;28;20248;-76
2022/03/26 02:56:04;;;;;;;17.13;15.53;;;;;;;3.04;55.17;93652.66;5049799;28;20213;-76
2022/03/26 02:58:30;;;;;;;15.77;14.27;;;;;;;3.13;56.09;93661.72;5049628;28;20270;-77
2022/03/26 03:00:57;;;;;;;17.90;14.80;;;;;;;3.20;55.06;93665.06;5049995;28;20201;-76
2022/03/26 03:03:22;;;;;;;17.00;14.70;;;;;;;3.32;53.10;93671.13;5049783;28;20266;-77
2022/03/26 03:05:48;;;;;;;18.50;15.17;;;;;;;3.38;54.14;93670.28;5050782;28;20193;-77
2022/03/26 03:08:17;;;;;;;18.40;16.43;;;;;;;3.13;56.50;93656.56;5050221;28;20178;-77
2022/03/26 03:10:43;;;;;;;22.23;16.23;;;;;;;3.06;56.31;93666.13;5049657;28;20177;-76
2022/03/26 03:13:09;;;;;;;19.07;17.10;;;;;;;3.17;56.43;93675.81;5048072;28;20192;-77
2022/03/26 03:15:35;;;;;;;22.13;16.83;;;;;;;2.78;56.91;93637.31;5048376;28;20192;-76
2022/03/26 03:18:00;;;;;;;16.37;14.77;;;;;;;2.78;58.42;93655.38;5049828;28;20253;-76
2022/03/26 03:20:26;;;;;;;17.37;15.57;;;;;;;2.85;59.07;93669.00;5049055;28;20255;-76
2022/03/26 03:22:51;;;;;;;15.67;14.03;;;;;;;2.90;58.53;93635.66;5047579;28;20186;-76
2022/03/26 03:25:18;;;;;;;15.77;14.27;;;;;;;3.04;58.75;93679.25;5049074;28;20242;-77
2022/03/26 03:27:43;;;;;;;14.70;13.47;;;;;;;2.87;58.97;93664.44;5049027;28;20178;-77
2022/03/26 03:30:11;;;;;;;14.50;13.27;;;;;;;2.63;59.59;93641.97;5046910;28;20226;-77
2022/03/26 03:32:37;;;;;;;17.33;15.73;;;;;;;2.79;59.46;93675.00;5048524;28;20194;-76
2022/03/26 03:35:03;;;;;;;16.93;15.40;;;;;;;2.64;57.86;93659.81;5049217;28;20256;-77
2022/03/26 03:37:29;;;;;;;16.07;14.57;;;;;;;2.78;57.79;93673.41;5048923;28;20217;-76
2022/03/26 03:39:54;;;;;;;15.93;14.60;;;;;;;2.76;56.78;93672.81;5048404;28;20240;-77
2022/03/26 03:42:20;;;;;;;16.67;14.17;;;;;;;2.83;58.26;93678.75;5049458;28;20230;-76
2022/03/26 03:44:45;;;;;;;15.30;13.73;;;;;;;2.43;56.72;93656.72;5047584;28;20234;-76
2022/03/26 03:47:11;;;;;;;15.60;14.03;;;;;;;2.41;56.46;93672.34;5048928;28;20192;-76
2022/03/26 03:49:36;;;;;;;16.53;15.07;;;;;;;2.59;55.73;93669.13;5048679;28;20246;-77
2022/03/26 03:52:02;;;;;;;14.83;13.47;;;;;;;2.54;55.53;93664.59;5049926;28;20201;-76
2022/03/26 03:54:28;;;;;;;15.87;14.37;;;;;;;2.56;55.46;93664.38;5049333;28;20237;-77
2022/03/26 03:56:53;;;;;;;15.93;14.33;;;;;;;2.49;56.25;93669.56;5049616;28;20209;-76
2022/03/26 03:59:19;;;;;;;16.53;14.47;;;;;;;2.31;58.09;93678.94;5047135;28;20221;-77
2022/03/26 04:01:44;;;;;;;15.33;13.80;;;;;;;2.26;57.90;93653.78;5049186;28;20190;-76
2022/03/26 04:04:10;;;;;;;14.73;13.37;;;;;;;2.38;58.00;93679.72;5048466;28;20281;-76
2022/03/26 04:06:37;;;;;;;15.83;14.23;;;;;;;2.44;56.54;93686.63;5048553;28;20196;-77
2022/03/26 04:09:02;;;;;;;15.60;14.10;;;;;;;2.49;55.23;93668.78;5049347;28;20217;-77
2022/03/26 04:11:28;;;;;;;16.87;15.27;;;;;;;2.65;54.56;93679.41;5049137;28;20194;-76
2022/03/26 04:13:54;;;;;;;14.13;12.93;;;;;;;2.63;54.12;93690.94;5047350;28;20226;-76
2022/03/26 04:16:20;;;;;;;15.27;13.67;;;;;;;2.65;53.64;93673.47;5048672;28;20190;-77
2022/03/26 04:18:46;;;;;;;14.70;13.17;;;;;;;2.71;53.46;93672.63;5048100;28;20233;-77
2022/03/26 04:21:11;;;;;;;17.90;14.17;;;;;;;2.88;53.44;93691.84;5037895;28;20194;-76
2022/03/26 04:23:37;;;;;;;15.27;13.10;;;;;;;2.80;53.88;93687.69;5047880;28;20221;-77
2022/03/26 04:26:03;;;;;;;14.63;13.07;;;;;;;2.84;53.80;93688.06;5047319;28;20186;-76
2022/03/26 04:28:28;;;;;;;15.80;14.17;;;;;;;2.89;52.55;93680.50;5039551;28;20218;-77
2022/03/26 04:30:54;;;;;;;27.20;17.77;;;;;;;3.01;53.23;93704.66;5048804;28;20247;-73
2022/03/26 04:33:19;;;;;;;17.23;15.63;;;;;;;3.17;52.66;93709.34;5047585;28;20198;-77
2022/03/26 04:35:45;;;;;;;15.50;14.03;;;;;;;3.23;52.67;93705.94;5048860;28;20182;-76
2022/03/26 04:38:10;;;;;;;16.03;14.33;;;;;;;3.23;52.66;93704.16;5047529;28;20237;-77
2022/03/26 04:40:36;;;;;;;16.70;14.00;;;;;;;3.19;52.88;93681.56;5049685;28;20210;-77
2022/03/26 04:43:01;;;;;;;15.57;14.07;;;;;;;3.22;51.96;93688.88;5048225;28;20202;-77
2022/03/26 04:45:29;;;;;;;16.30;14.60;;;;;;;3.22;54.86;93705.13;5039776;28;20240;-77
2022/03/26 04:47:54;;;;;;;13.93;12.40;;;;;;;3.40;54.02;93688.16;5048906;28;20236;-77
2022/03/26 04:50:20;;;;;;;14.67;13.27;;;;;;;3.47;54.01;93679.38;5045976;28;20244;-77
2022/03/26 04:52:45;;;;;;;14.77;13.50;;;;;;;3.64;54.09;93720.97;5048899;28;20185;-77
2022/03/26 04:55:11;;;;;;;17.33;13.40;;;;;;;3.73;53.33;93717.94;5051750;28;20240;-77
2022/03/26 04:57:41;;;;;;;16.07;14.53;;;;;;;3.90;51.05;93723.34;5050227;28;20209;-77
2022/03/26 05:00:08;;;;;;;18.27;14.13;;;;;;;4.04;52.05;93717.88;5048896;28;20230;-76
2022/03/26 05:02:36;;;;;;;15.30;13.73;;;;;;;3.86;54.11;93725.56;5053020;28;20216;-77
2022/03/26 05:05:02;;;;;;;16.70;14.90;;;;;;;3.85;53.82;93724.00;5051816;28;20297;-76
2022/03/26 05:07:46;;;;;;;18.10;14.60;;;;;;;3.73;54.18;93693.88;5052988;28;20190;-76
2022/03/26 05:10:17;;;;;;;17.27;15.07;;;;;;;3.86;53.95;93694.56;5050683;28;20218;-77
2022/03/26 05:12:43;;;;;;;18.63;15.80;;;;;;;4.18;53.44;93728.88;5052066;28;20214;-76
2022/03/26 05:15:10;;;;;;;18.17;16.13;;;;;;;4.25;53.09;93727.81;5051086;28;20226;-76
2022/03/26 05:17:36;;;;;;;21.57;16.43;;;;;;;4.34;53.04;93729.13;5052587;28;20236;-76
2022/03/26 05:20:02;;;;;;;19.40;16.80;;;;;;;4.14;52.65;93697.50;5051668;28;21330;-76
2022/03/26 05:22:28;;;;;;;19.83;17.83;;;;;;;4.45;52.24;93714.72;5050320;28;20210;-76
2022/03/26 05:24:54;;;;;;;24.33;17.17;;;;;;;4.59;52.66;93711.00;5051826;28;20240;-76
2022/03/26 05:27:20;;;;;;;21.50;19.17;;;;;;;4.70;49.35;93702.53;5047843;28;20186;-76
2022/03/26 05:29:46;;;;;;;29.50;19.40;;;;;;;4.88;50.74;93729.19;5048347;28;20214;-75
2022/03/26 05:32:12;;;;;;;29.57;19.63;;;;;;;4.79;50.77;93732.28;5048975;28;20265;-76
2022/03/26 05:34:38;;;;;;;24.87;19.83;;;;;;;4.84;51.84;93740.94;5051022;28;20210;-76
2022/03/26 05:37:04;;;;;;;27.80;21.47;;;;;;;4.75;51.83;93731.91;5051271;28;20269;-76
2022/03/26 05:39:30;;;;;;;27.90;19.63;;;;;;;5.01;51.67;93738.59;5050024;28;20233;-77
2022/03/26 05:41:56;;;;;;;25.97;20.07;;;;;;;5.06;51.63;93733.53;5048943;28;20209;-76
2022/03/26 05:44:21;;;;;;;31.87;22.60;;;;;;;4.98;51.83;93744.97;5049532;28;20289;-77
2022/03/26 05:46:47;;;;;;;25.70;20.30;;;;;;;5.05;51.89;93747.50;5049370;28;20184;-78
2022/03/26 05:49:12;;;;;;;26.70;20.83;;;;;;;5.17;50.63;93735.41;5047137;28;20248;-79
2022/03/26 05:51:38;;;;;;;33.90;19.80;;;;;;;5.07;51.46;93750.66;5047415;28;20721;-75
2022/03/26 05:54:03;;;;;;;26.80;21.70;;;;;;;5.33;50.86;93757.31;5049204;28;20295;-76
2022/03/26 05:56:29;;;;;;;26.83;20.80;;;;;;;5.07;50.48;93734.34;5048645;28;20194;-76
2022/03/26 05:58:55;;;;;;;24.13;21.10;;;;;;;5.26;50.49;93754.03;5047779;28;20225;-77
2022/03/26 06:01:22;;;;;;;31.60;21.20;;;;;;;5.31;51.37;93756.75;5048500;28;20198;-76
2022/03/26 06:03:47;;;;;;;30.43;20.97;;;;;;;5.64;49.58;93752.72;5049164;28;20234;-78
2022/03/26 06:06:13;;;;;;;24.50;21.10;;;;;;;5.60;49.84;93758.56;5042039;28;20218;-75
2022/03/26 06:08:38;;;;;;;25.80;20.87;;;;;;;5.77;49.02;93762.09;5050121;28;20225;-74
2022/03/26 06:11:04;;;;;;;25.80;20.67;;;;;;;5.72;48.77;93760.19;5048791;28;20186;-75
2022/03/26 06:13:29;;;;;;;25.57;20.57;;;;;;;5.73;48.66;93751.38;5048964;28;20233;-79
2022/03/26 06:15:54;;;;;;;27.23;20.03;;;;;;;5.89;47.90;93765.53;5050735;28;20198;-78
2022/03/26 06:18:20;;;;;;;23.80;20.73;;;;;;;6.18;46.82;93775.88;5048618;28;20285;-82
2022/03/26 06:20:45;;;;;;;28.83;20.40;;;;;;;5.76;49.24;93770.91;5046930;28;20268;-78
2022/03/26 06:23:11;;;;;;;26.57;21.13;;;;;;;5.95;49.21;93770.63;5047825;28;20197;-81
2022/03/26 06:25:36;;;;;;;25.47;20.27;;;;;;;5.95;48.62;93755.09;5049512;28;20186;-86
2022/03/26 06:28:02;;;;;;;30.50;21.70;;;;;;;6.10;47.79;93752.84;5048270;28;20197;-84
2022/03/26 06:30:27;;;;;;;27.53;20.83;;;;;;;6.41;47.55;93764.75;5048474;28;20230;-84
2022/03/26 06:32:53;;;;;;;36.20;21.90;;;;;;;6.59;46.83;93762.03;5048912;28;20225;-83
2022/03/26 06:35:19;;;;;;;29.40;22.27;;;;;;;6.71;46.94;93773.19;5048457;28;20222;-78
2022/03/26 06:37:45;;;;;;;32.43;22.43;;;;;;;6.53;47.82;93774.13;5045480;28;20229;-73
2022/03/26 06:40:10;;;;;;;29.37;22.40;;;;;;;6.71;48.01;93786.16;5047367;28;20214;-74
2022/03/26 06:42:36;;;;;;;29.43;23.23;;;;;;;6.69;47.69;93772.66;5046805;28;20253;-75
2022/03/26 06:45:02;;;;;;;30.47;22.50;;;;;;;7.06;46.46;93792.16;5048142;28;20245;-78
2022/03/26 06:47:31;;;;;;;26.20;20.83;;;;;;;7.10;46.32;93788.06;5048560;28;20230;-80
2022/03/26 06:49:57;;;;;;;30.20;21.63;;;;;;;7.03;45.88;93764.03;5047000;28;21683;-80
2022/03/26 06:52:23;;;;;;;29.13;22.03;;;;;;;7.07;45.58;93783.31;5048528;28;20294;-74
2022/03/26 06:54:49;;;;;;;29.77;20.83;;;;;;;7.08;46.51;93804.91;5048637;28;20206;-79
2022/03/26 06:57:15;;;;;;;28.27;21.23;;;;;;;6.99;45.90;93781.06;5047447;28;20216;-77
2022/03/26 06:59:41;;;;;;;28.00;20.73;;;;;;;7.37;45.47;93804.72;5048107;28;20222;-79
2022/03/26 07:02:06;;;;;;;29.10;20.97;;;;;;;7.62;44.07;93809.63;5047022;28;20242;-77
2022/03/26 07:04:32;;;;;;;27.90;21.57;;;;;;;7.36;44.51;93786.78;5049416;28;20222;-84
2022/03/26 07:06:57;;;;;;;35.67;22.27;;;;;;;7.75;43.42;93814.56;5048694;28;21025;-79
2022/03/26 07:09:23;;;;;;;35.33;21.93;;;;;;;7.53;44.12;93817.00;5047421;28;20226;-84
2022/03/26 07:11:52;;;;;;;31.33;21.43;;;;;;;7.65;43.45;93812.56;5044888;28;20186;-82
2022/03/26 07:14:18;;;;;;;25.30;19.77;;;;;;;7.97;42.23;93824.09;5044859;28;20234;-82
2022/03/26 07:16:44;;;;;;;29.33;20.63;;;;;;;7.79;41.98;93811.28;5044500;28;20213;-82
2022/03/26 07:19:10;;;;;;;26.53;20.70;;;;;;;8.10;41.67;93830.81;5046087;28;20225;-80
2022/03/26 07:21:36;;;;;;;25.43;21.80;;;;;;;7.97;41.47;93808.47;5045769;28;20186;-80
2022/03/26 07:24:02;;;;;;;23.80;20.03;;;;;;;7.85;41.31;93779.16;5045089;28;20248;-86
2022/03/26 07:26:27;;;;;;;33.53;21.43;;;;;;;7.96;41.38;93757.50;5043290;28;20250;-77
2022/03/26 07:28:55;;;;;;;31.50;22.47;;;;;;;7.94;42.75;93816.75;5048370;28;20237;-79
2022/03/26 07:31:21;;;;;;;32.80;21.87;;;;;;;8.26;41.95;93821.50;5048068;28;20194;-79
2022/03/26 07:33:46;;;;;;;31.00;22.20;;;;;;;8.40;41.82;93812.38;5046752;28;20230;-80
2022/03/26 07:36:12;;;;;;;31.03;21.07;;;;;;;8.70;40.66;93797.25;5044398;28;20220;-79
2022/03/26 07:38:37;;;;;;;27.50;20.33;;;;;;;9.03;39.07;93826.63;5043415;28;20225;-79
2022/03/26 07:41:03;;;;;;;31.67;20.83;;;;;;;8.81;39.82;93830.22;5047089;28;20183;-78
2022/03/26 07:43:29;;;;;;;33.73;21.80;;;;;;;8.73;40.62;93820.19;5046680;28;20229;-78
2022/03/26 07:45:54;;;;;;;38.63;21.90;;;;;;;8.40;40.72;93817.56;5042846;28;20193;-78
2022/03/26 07:48:20;;;;;;;34.87;22.93;;;;;;;8.71;40.54;93832.66;5044113;28;20202;-76
2022/03/26 07:50:46;;;;;;;31.63;22.50;;;;;;;8.84;39.86;93840.16;5048549;28;20205;-80
2022/03/26 07:53:12;;;;;;;40.40;22.30;;;;;;;8.43;41.14;93830.13;5045398;28;20205;-79
2022/03/26 07:55:38;;;;;;;35.03;22.77;;;;;;;8.92;40.35;93830.13;5045640;28;21087;-80
2022/03/26 07:58:03;;;;;;;28.47;21.23;;;;;;;9.31;38.69;93829.13;5046753;28;20221;-78
2022/03/26 08:00:29;;;;;;;31.13;22.07;;;;;;;9.32;39.35;93822.88;5047531;28;20236;-83
2022/03/26 08:02:55;;;;;;;31.83;21.80;;;;;;;9.76;38.21;93818.44;5048566;28;20182;-84
2022/03/26 08:05:21;;;;;;;44.93;22.33;;;;;;;9.82;37.15;93835.75;5047193;28;20253;-80
2022/03/26 08:07:46;;;;;;;29.30;22.50;;;;;;;9.35;38.77;93816.41;5048511;28;20205;-76
2022/03/26 08:10:12;;;;;;;28.80;21.63;;;;;;;9.65;37.37;93841.03;5042802;28;20256;-77
2022/03/26 08:12:37;;;;;;;25.43;20.13;;;;;;;9.97;35.82;93835.13;5045334;28;20187;-76
2022/03/26 08:15:04;;;;;;;32.77;19.43;;;;;;;9.82;35.12;93817.50;5046216;28;20244;-78
2022/03/26 08:17:29;;;;;;;31.10;20.60;;;;;;;9.99;35.55;93823.44;5048410;28;20264;-79
2022/03/26 08:19:55;;;;;;;27.70;20.47;;;;;;;10.06;35.80;93828.44;5046955;28;20226;-76
2022/03/26 08:22:20;;;;;;;30.70;20.67;;;;;;;10.03;35.62;93832.34;5044993;28;20200;-83
2022/03/26 08:24:46;;;;;;;25.80;19.63;;;;;;;10.26;35.92;93832.06;5047608;28;20256;-75
2022/03/26 08:27:11;;;;;;;25.90;19.07;;;;;;;10.46;35.29;93819.22;5047983;28;20201;-73
2022/03/26 08:29:37;;;;;;;30.87;20.67;;;;;;;10.42;34.09;93828.59;5047241;28;20240;-74
2022/03/26 08:32:05;;;;;;;32.77;19.90;;;;;;;10.60;33.18;93825.59;5045184;28;20194;-75
2022/03/26 08:34:30;;;;;;;22.33;16.90;;;;;;;10.55;33.21;93824.78;5046948;28;20562;-75
2022/03/26 08:36:56;;;;;;;22.13;17.67;;;;;;;10.39;33.06;93831.69;5044806;28;20222;-74
2022/03/26 08:39:21;;;;;;;19.97;17.57;;;;;;;10.49;33.19;93826.53;5045636;28;20241;-75
2022/03/26 08:41:47;;;;;;;19.40;17.40;;;;;;;10.62;31.81;93820.94;5043822;28;20186;-76
2022/03/26 08:44:13;;;;;;;20.47;16.57;;;;;;;10.93;31.24;93820.13;5044301;28;20260;-76
2022/03/26 08:46:38;;;;;;;23.23;18.50;;;;;;;10.92;31.05;93804.69;5044368;28;20203;-76
2022/03/26 08:49:04;;;;;;;23.17;16.40;;;;;;;10.73;30.44;93806.91;5044298;28;20229;-76
2022/03/26 08:51:29;;;;;;;20.53;17.07;;;;;;;10.60;31.78;93815.16;5047802;28;20197;-76
2022/03/26 08:53:55;;;;;;;23.77;17.37;;;;;;;10.66;31.72;93811.53;5045862;28;20230;-75
2022/03/26 08:56:21;;;;;;;19.43;17.37;;;;;;;11.02;31.99;93807.38;5046232;28;20190;-75
2022/03/26 08:58:46;;;;;;;23.20;18.43;;;;;;;10.84;31.60;93811.19;5045616;28;20237;-75
2022/03/26 09:01:11;;;;;;;24.17;17.43;;;;;;;10.95;32.29;93815.44;5047935;28;20201;-76
2022/03/26 09:03:37;;;;;;;21.30;17.33;;;;;;;10.98;31.65;93807.09;5045450;28;20237;-76
2022/03/26 09:06:06;;;;;;;21.60;17.20;;;;;;;11.02;31.83;93810.78;5046015;28;20196;-75
2022/03/26 09:08:32;;;;;;;20.80;18.60;;;;;;;11.08;31.25;93803.78;5045863;28;20241;-76
2022/03/26 09:10:57;;;;;;;23.70;19.23;;;;;;;11.14;30.86;93810.59;5047390;28;20300;-75
2022/03/26 09:13:23;;;;;;;21.90;19.67;;;;;;;11.19;31.77;93803.56;5046752;28;20186;-73
2022/03/26 09:15:49;;;;;;;23.53;19.63;;;;;;;11.10;31.88;93806.91;5047882;28;20200;-75
2022/03/26 09:18:15;;;;;;;32.53;22.67;;;;;;;11.11;33.08;93795.44;5047760;28;20233;-75
2022/03/26 09:20:40;;;;;;;25.97;19.27;;;;;;;11.42;32.86;93797.16;5037279;28;20226;-75
2022/03/26 09:23:06;;;;;;;31.00;20.37;;;;;;;11.56;31.61;93800.09;5045182;28;20197;-75
2022/03/26 09:25:33;;;;;;;30.87;22.63;;;;;;;11.53;32.80;93808.47;5044792;28;20221;-75
2022/03/26 09:27:59;;;;;;;26.77;22.30;;;;;;;11.38;33.94;93791.66;5045894;28;20197;-73
2022/03/26 09:30:24;;;;;;;28.97;22.17;;;;;;;11.59;32.73;93786.50;5044941;28;20234;-74
2022/03/26 09:32:50;;;;;;;30.67;22.43;;;;;;;11.80;34.07;93803.91;5046858;28;20187;-74
2022/03/26 09:35:15;;;;;;;34.70;22.70;;;;;;;11.52;32.96;93799.03;5046456;28;20237;-73
2022/03/26 09:37:42;;;;;;;26.20;23.40;;;;;;;11.48;33.42;93795.34;5045053;28;20248;-75
2022/03/26 09:40:10;;;;;;;26.93;22.03;;;;;;;11.64;33.95;93789.19;5047756;28;20229;-72
2022/03/26 09:42:36;;;;;;;34.78;24.90;;;;;;;11.68;33.79;93774.53;5043112;28;20506;-74
2022/03/26 09:45:05;;;;;;;30.60;23.50;;;;;;;12.05;32.27;93793.50;5049129;28;20234;-73
2022/03/26 09:47:31;;;;;;;30.93;21.83;;;;;;;11.91;32.06;93780.13;5049120;28;20206;-76
2022/03/26 09:49:57;;;;;;;29.33;23.33;;;;;;;11.80;33.26;93788.22;5048640;28;20210;-75
2022/03/26 09:52:23;;;;;;;27.10;22.43;;;;;;;11.92;32.60;93780.91;5048905;28;20218;-74
2022/03/26 09:54:49;;;;;;;27.50;24.43;;;;;;;11.71;33.63;93774.03;5048463;28;20248;-74
2022/03/26 09:57:14;;;;;;;29.43;22.53;;;;;;;11.61;33.11;93755.66;5049233;28;20205;-72
2022/03/26 09:59:40;;;;;;;33.07;23.50;;;;;;;11.76;33.02;93764.38;5048035;28;20221;-72
2022/03/26 10:02:05;;;;;;;28.37;22.30;;;;;;;11.59;33.36;93768.19;5049870;28;20205;-72
2022/03/26 10:04:41;;;;;;;35.20;23.37;;;;;;;11.39;34.31;93771.53;5050530;28;20251;-72
2022/03/26 10:07:07;;;;;;;31.67;20.93;;;;;;;11.92;32.51;93770.44;5049060;28;20189;-71
2022/03/26 10:09:37;;;;;;;31.03;22.00;;;;;;;11.88;34.90;93764.13;5049445;28;20227;-72
2022/03/26 10:12:28;;;;;;;26.97;21.90;;;;;;;11.83;33.41;93761.53;5048548;28;20197;-72
2022/03/26 10:15:04;;;;;;;26.83;20.77;;;;;;;11.95;34.24;93764.69;5048524;28;20237;-72
2022/03/26 10:17:35;;;;;;;33.63;23.33;;;;;;;12.16;33.56;93747.97;5048899;28;20230;-74
2022/03/26 10:20:14;;;;;;;28.77;21.87;;;;;;;12.26;34.08;93755.84;5044894;28;20241;-75
2022/03/26 10:22:43;;;;;;;32.73;20.67;;;;;;;12.32;34.44;93754.81;5049835;28;20214;-69
2022/03/26 10:25:15;;;;;;;24.33;20.80;;;;;;;12.47;33.32;93745.13;5042423;28;20244;-71
2022/03/26 10:27:48;;;;;;;28.80;21.13;;;;;;;12.73;32.10;93741.44;5049617;28;20221;-74
2022/03/26 10:30:16;;;;;;;34.00;20.97;;;;;;;12.61;32.53;93724.41;5047113;28;20229;-72
2022/03/26 10:32:45;;;;;;;25.47;19.63;;;;;;;12.79;33.24;93723.88;5049062;28;20204;-73
2022/03/26 10:35:21;;;;;;;42.57;22.43;;;;;;;12.40;33.69;93735.97;5049708;28;20242;-75
2022/03/26 10:37:56;;;;;;;29.40;19.67;;;;;;;12.43;34.29;93731.00;5048110;28;20211;-73
2022/03/26 10:40:29;;;;;;;24.07;18.27;;;;;;;12.84;31.94;93721.28;5048651;28;20227;-73
2022/03/26 10:42:58;;;;;;;19.50;17.30;;;;;;;12.80;32.85;93722.81;5047741;28;20204;-73
2022/03/26 10:45:24;;;;;;;25.43;17.37;;;;;;;13.03;32.57;93730.16;5047813;28;20268;-73
2022/03/26 10:47:56;;;;;;;23.13;18.27;;;;;;;12.78;32.40;93725.72;5050343;28;20174;-74
2022/03/26 10:50:22;;;;;;;24.83;19.87;;;;;;;12.65;32.45;93721.00;5047897;28;20287;-75
2022/03/26 10:52:47;;;;;;;25.30;19.30;;;;;;;12.70;33.00;93720.25;5047731;28;20189;-74
2022/03/26 10:55:15;;;;;;;28.80;17.67;;;;;;;12.93;32.93;93717.81;5048885;28;20241;-75
2022/03/26 10:57:43;;;;;;;20.83;17.43;;;;;;;13.12;31.85;93712.81;5050182;28;20210;-75
2022/03/26 11:00:10;;;;;;;20.20;17.77;;;;;;;13.09;32.52;93713.34;5048041;28;20230;-75
2022/03/26 11:02:35;;;;;;;20.73;16.43;;;;;;;12.99;31.92;93697.63;5048550;28;20186;-75
2022/03/26 11:05:01;;;;;;;24.20;17.73;;;;;;;13.04;32.25;93704.72;5048132;28;20229;-75
2022/03/26 11:07:27;;;;;;;22.57;16.60;;;;;;;13.43;31.47;93714.28;5047871;28;20188;-75
2022/03/26 11:09:55;;;;;;;19.67;16.10;;;;;;;13.35;31.19;93698.34;5049412;28;20281;-75
2022/03/26 11:12:21;;;;;;;21.33;16.73;;;;;;;12.98;32.24;93685.56;5049298;28;20182;-75
2022/03/26 11:14:48;;;;;;;23.50;16.33;;;;;;;13.22;31.81;93694.44;5049592;28;20285;-75
2022/03/26 11:17:45;;;;;;;27.57;16.73;;;;;;;13.28;32.36;93697.81;5047931;28;20217;-75
2022/03/26 11:20:13;;;;;;;23.07;15.43;;;;;;;13.33;31.83;93698.59;5049804;28;20249;-75